Terminal Aerodrome Forecast
Issued by NWS

Home | Current Version | Previous Version | Text Only | Print | Product List | Glossary On
Versions: 1 2 3 4 5 6 7 8 9 10 11 12 13 14 15
000
FTUS45 KTFX 022343
TAFLWT
TAF
KLWT 022343Z 0300/0324 10011KT P6SM VCTS SCT040CB BKN090
      TEMPO 0300/0303 VRB20G35KT TSRA
     FM030300 15006KT P6SM BKN060
     FM031700 12010KT P6SM SCT040 BKN090 PROB30 0320/0324 -TSRA
      BKN040CB=

USA.gov is the U.S. government's official web portal to all federal, state and local government web resources and services.